Montgomery Ferry, Pennsylvania
Current Conditions -  °F | °C
As of 2:56 AM on Friday 24 Oct 2014 (Local Time) from KCXY Reporting Station
Overcast Overcast  
Wind Chill: 57°   Ceiling: 4200
Heat Index: 57°   Visibility: 10mi
Dew Point: 42°   Wind: 9mph
Humidity: 57%   Direction: 300°WNW
Pressure: 29.9"   Gusts: NA
Location:  40.4932°N, 77.217°W
Report Text: KCXY 240656Z AUTO 30008KT 10SM OVC042 14/06 A2990 RMK AO2 SLP125 T01390056
Loading
Personal Weather Stations






























Interactive Weather Map
Tropical Storm Tracking
New forecast layout! Learn more

10-Day Weather Forecast

Advertisements
Track Severe Weather on mobile